Time;durP1;ratioP1;P1;durP2;ratioP2;P2;SDS_P1;SDS_P2;PMS_P1;PMS_P2;Temp;Humidity;BMP_temperature;BMP_pressure;BME280_temperature;BME280_humidity;BME280_pressure;Samples;Min_cycle;Max_cycle;Signal;HPM_P1;HPM_P2
2023/10/26 00:02:15;;;;;;;9.57;2.70;;;16.40;99.90;;;;;;4995573;28;20668;-73
2023/10/26 00:04:43;;;;;;;7.87;2.77;;;17.10;99.90;;;;;;4996338;28;20198;-72
2023/10/26 00:07:10;;;;;;;9.20;2.00;;;17.90;99.90;;;;;;4995581;28;20194;-73
2023/10/26 00:09:37;;;;;;;3.07;1.53;;;18.20;99.90;;;;;;4995243;28;20178;-74
2023/10/26 00:12:05;;;;;;;6.50;2.10;;;17.90;99.90;;;;;;4995723;28;20190;-74
2023/10/26 00:14:33;;;;;;;9.00;1.97;;;17.90;99.90;;;;;;4995964;28;20202;-73
2023/10/26 00:17:00;;;;;;;8.07;2.03;;;18.10;99.90;;;;;;4994508;28;20206;-72
2023/10/26 00:19:27;;;;;;;9.47;2.43;;;17.70;99.90;;;;;;4994979;28;20254;-72
2023/10/26 00:21:55;;;;;;;8.00;2.43;;;17.70;99.90;;;;;;4993985;28;20656;-72
2023/10/26 00:24:22;;;;;;;10.87;2.30;;;17.80;99.90;;;;;;4994590;28;20236;-72
2023/10/26 00:26:49;;;;;;;6.63;2.10;;;17.60;99.90;;;;;;4992756;28;20256;-72
2023/10/26 00:29:16;;;;;;;5.00;2.10;;;17.40;99.90;;;;;;4994344;28;20181;-71
2023/10/26 00:31:43;;;;;;;7.73;2.20;;;17.20;99.90;;;;;;4991657;28;20178;-70
2023/10/26 00:34:11;;;;;;;14.40;3.47;;;17.10;99.90;;;;;;4994561;28;20258;-70
2023/10/26 00:36:38;;;;;;;4.40;1.60;;;17.00;99.90;;;;;;4994524;28;20240;-70
2023/10/26 00:39:06;;;;;;;10.63;2.63;;;17.10;99.90;;;;;;4991667;28;20652;-71
2023/10/26 00:41:33;;;;;;;11.80;2.63;;;17.30;99.90;;;;;;4994122;28;20218;-71
2023/10/26 00:44:00;;;;;;;4.73;1.60;;;17.40;99.90;;;;;;4994768;28;20179;-71
2023/10/26 00:46:27;;;;;;;3.90;1.67;;;17.60;99.90;;;;;;4994059;28;20195;-71
2023/10/26 00:48:55;;;;;;;6.53;1.30;;;17.30;99.90;;;;;;4994728;28;20240;-70
2023/10/26 00:51:23;;;;;;;4.90;2.03;;;17.10;99.90;;;;;;4993515;28;20232;-71
2023/10/26 00:53:51;;;;;;;4.83;1.73;;;18.20;99.90;;;;;;4993146;28;20265;-71
2023/10/26 00:56:20;;;;;;;6.87;1.67;;;18.40;99.90;;;;;;4993706;28;20197;-70
2023/10/26 00:58:48;;;;;;;12.30;2.17;;;18.00;99.90;;;;;;4994639;28;20194;-71
2023/10/26 01:01:17;;;;;;;8.77;2.30;;;17.40;99.90;;;;;;4994033;28;20219;-73
2023/10/26 01:03:47;;;;;;;7.10;1.90;;;17.10;99.90;;;;;;4993433;28;20182;-73
2023/10/26 01:06:14;;;;;;;11.07;2.60;;;16.70;99.90;;;;;;4992631;28;20194;-73
2023/10/26 01:08:42;;;;;;;8.07;2.23;;;16.60;99.90;;;;;;4992589;28;20183;-72
2023/10/26 01:11:09;;;;;;;5.43;2.13;;;16.40;99.90;;;;;;4992412;28;20191;-71
2023/10/26 01:13:37;;;;;;;3.70;2.00;;;16.20;99.90;;;;;;4992848;28;20171;-72
2023/10/26 01:16:04;;;;;;;8.90;1.90;;;16.10;99.90;;;;;;4992348;28;20194;-73
2023/10/26 01:18:32;;;;;;;7.47;2.00;;;16.00;99.90;;;;;;4993205;28;20182;-72
2023/10/26 01:20:59;;;;;;;3.93;2.30;;;16.10;99.90;;;;;;4993835;28;20225;-73
2023/10/26 01:23:26;;;;;;;8.37;2.27;;;16.10;99.90;;;;;;4993748;28;20186;-73
2023/10/26 01:25:55;;;;;;;9.40;2.20;;;16.00;99.90;;;;;;4994535;28;20183;-72
2023/10/26 01:28:23;;;;;;;7.67;2.00;;;16.00;99.90;;;;;;4992981;28;20277;-74
2023/10/26 01:30:51;;;;;;;7.60;1.67;;;16.00;99.90;;;;;;4993012;28;20204;-73
2023/10/26 01:33:19;;;;;;;8.33;2.00;;;16.10;99.90;;;;;;4993804;28;20214;-72
2023/10/26 01:35:46;;;;;;;9.70;2.40;;;16.20;99.90;;;;;;4993963;28;20225;-73
2023/10/26 01:38:14;;;;;;;10.10;2.47;;;16.10;99.90;;;;;;4993188;28;20189;-73
2023/10/26 01:40:42;;;;;;;7.70;1.73;;;16.10;99.90;;;;;;4993988;28;20323;-72
2023/10/26 01:43:09;;;;;;;4.63;1.87;;;16.10;99.90;;;;;;4993565;28;20192;-73
2023/10/26 01:45:36;;;;;;;6.60;1.70;;;16.00;99.90;;;;;;4993315;28;20624;-73
2023/10/26 01:48:04;;;;;;;6.07;2.37;;;16.00;99.90;;;;;;4993332;28;20655;-73
2023/10/26 01:50:32;;;;;;;6.60;1.60;;;16.10;99.90;;;;;;4993755;28;20214;-73
2023/10/26 01:52:59;;;;;;;7.23;1.70;;;16.10;99.90;;;;;;4993192;28;20225;-73
2023/10/26 01:55:26;;;;;;;7.67;1.77;;;16.10;99.90;;;;;;4993383;28;20196;-73
2023/10/26 01:57:54;;;;;;;4.00;2.07;;;16.20;99.90;;;;;;4993549;28;20182;-73
2023/10/26 02:00:21;;;;;;;9.30;2.37;;;16.10;99.90;;;;;;4992632;28;20285;-72
2023/10/26 02:02:49;;;;;;;5.77;1.97;;;16.20;99.90;;;;;;4992222;28;20257;-73
2023/10/26 02:05:17;;;;;;;6.27;1.87;;;16.30;99.90;;;;;;4993259;28;20202;-73
2023/10/26 02:07:44;;;;;;;6.17;1.90;;;16.30;99.90;;;;;;4992909;28;20269;-72
2023/10/26 02:10:14;;;;;;;5.77;1.80;;;16.60;99.90;;;;;;4992700;28;20191;-74
2023/10/26 02:12:42;;;;;;;6.30;1.70;;;16.50;99.90;;;;;;4993322;28;20229;-72
2023/10/26 02:15:09;;;;;;;6.43;1.87;;;16.30;99.90;;;;;;4992731;28;20191;-72
2023/10/26 02:17:36;;;;;;;7.57;1.80;;;16.40;99.90;;;;;;4992990;28;20229;-70
2023/10/26 02:20:04;;;;;;;6.07;1.73;;;16.60;99.90;;;;;;4992567;28;20683;-72
2023/10/26 02:22:31;;;;;;;5.63;1.97;;;16.70;99.90;;;;;;4992490;28;20200;-71
2023/10/26 02:24:59;;;;;;;8.73;1.97;;;16.50;99.90;;;;;;4992956;28;20186;-72
2023/10/26 02:27:26;;;;;;;8.83;1.70;;;16.40;99.90;;;;;;4993146;28;20213;-73
2023/10/26 02:29:53;;;;;;;6.10;1.90;;;16.20;99.90;;;;;;4992429;28;20190;-70
2023/10/26 02:32:20;;;;;;;7.73;2.27;;;16.00;99.90;;;;;;4992696;28;20186;-72
2023/10/26 02:34:48;;;;;;;6.60;1.70;;;16.10;99.90;;;;;;4992991;28;20799;-72
2023/10/26 02:37:17;;;;;;;14.33;2.13;;;16.30;99.90;;;;;;4992592;28;20233;-72
2023/10/26 02:39:44;;;;;;;7.67;1.50;;;16.20;99.90;;;;;;4992165;28;20294;-73
2023/10/26 02:42:11;;;;;;;6.90;1.50;;;16.20;99.90;;;;;;4992782;28;20192;-72
2023/10/26 02:44:38;;;;;;;5.77;1.90;;;16.10;99.90;;;;;;4992199;28;20186;-72
2023/10/26 02:47:06;;;;;;;6.93;1.80;;;16.10;99.90;;;;;;4992452;28;20222;-71
2023/10/26 02:49:36;;;;;;;5.50;1.60;;;16.20;99.90;;;;;;4992181;28;20206;-72
2023/10/26 02:52:04;;;;;;;6.17;1.87;;;16.10;99.90;;;;;;4992497;28;20201;-72
2023/10/26 02:54:31;;;;;;;13.67;2.17;;;16.00;99.90;;;;;;4992484;28;20182;-72
2023/10/26 02:56:58;;;;;;;8.27;1.77;;;16.00;99.90;;;;;;4992146;28;20222;-72
2023/10/26 02:59:26;;;;;;;6.23;1.53;;;16.10;99.90;;;;;;4991791;28;20226;-71
2023/10/26 03:01:54;;;;;;;6.80;1.70;;;16.10;99.90;;;;;;4991834;28;20190;-72
2023/10/26 03:04:21;;;;;;;7.00;1.83;;;16.20;99.90;;;;;;4992005;28;20210;-73
2023/10/26 03:06:48;;;;;;;6.70;1.77;;;16.30;99.90;;;;;;4992425;28;20182;-73
2023/10/26 03:09:16;;;;;;;5.23;1.50;;;16.30;99.90;;;;;;4990911;28;20266;-71
2023/10/26 03:11:44;;;;;;;6.60;1.40;;;16.40;99.90;;;;;;4991647;28;20225;-71
2023/10/26 03:14:11;;;;;;;6.23;1.43;;;16.50;99.90;;;;;;4991034;28;20201;-71
2023/10/26 03:16:38;;;;;;;7.00;1.70;;;16.50;99.90;;;;;;4991854;28;20197;-73
2023/10/26 03:19:06;;;;;;;5.03;1.60;;;16.70;99.90;;;;;;4991914;28;20193;-74
2023/10/26 03:21:33;;;;;;;9.63;1.90;;;16.90;99.90;;;;;;4989981;28;20644;-73
2023/10/26 03:24:00;;;;;;;7.30;1.70;;;17.00;99.90;;;;;;4991332;28;20175;-71
2023/10/26 03:26:28;;;;;;;10.00;1.60;;;17.00;99.90;;;;;;5005189;28;20194;-72
2023/10/26 03:28:55;;;;;;;9.30;1.77;;;16.70;99.90;;;;;;4995946;28;20179;-72
2023/10/26 03:31:22;;;;;;;5.87;1.50;;;16.40;99.90;;;;;;4991912;28;20616;-71
2023/10/26 03:33:50;;;;;;;6.57;1.60;;;16.30;99.90;;;;;;4991954;28;20182;-72
2023/10/26 03:36:19;;;;;;;11.97;1.60;;;16.30;99.90;;;;;;4991608;28;20232;-72
2023/10/26 03:38:51;;;;;;;6.33;1.50;;;16.30;99.90;;;;;;4991600;28;20190;-73
2023/10/26 03:41:19;;;;;;;5.10;1.47;;;16.30;99.90;;;;;;4991712;28;20307;-71
2023/10/26 03:43:47;;;;;;;5.03;1.23;;;16.20;99.90;;;;;;4991918;28;20187;-72
2023/10/26 03:46:14;;;;;;;8.30;1.50;;;16.20;99.90;;;;;;4991428;28;20561;-70
2023/10/26 03:48:41;;;;;;;5.87;1.43;;;16.30;99.90;;;;;;4992449;28;20174;-69
2023/10/26 03:51:09;;;;;;;7.47;1.63;;;16.30;99.90;;;;;;4991336;28;20202;-72
2023/10/26 03:53:36;;;;;;;9.27;2.00;;;16.20;99.90;;;;;;4974656;28;20277;-69
2023/10/26 03:56:04;;;;;;;5.77;1.57;;;16.20;99.90;;;;;;4992276;28;20186;-71
2023/10/26 03:58:31;;;;;;;10.50;1.70;;;16.10;99.90;;;;;;4991137;28;20241;-69
2023/10/26 04:01:00;;;;;;;6.70;1.67;;;16.10;99.90;;;;;;4990375;28;20233;-69
2023/10/26 04:03:28;;;;;;;9.87;2.43;;;16.20;99.90;;;;;;5003624;28;20235;-69
2023/10/26 04:05:55;;;;;;;3.60;1.20;;;16.20;99.90;;;;;;5011496;28;20643;-68
2023/10/26 04:08:22;;;;;;;6.67;1.50;;;16.10;99.90;;;;;;4991670;28;20182;-68
2023/10/26 04:10:50;;;;;;;6.03;1.40;;;16.10;99.90;;;;;;4991848;28;20261;-68
2023/10/26 04:13:17;;;;;;;5.63;1.50;;;16.30;99.90;;;;;;4991631;28;20690;-71
2023/10/26 04:15:44;;;;;;;7.07;1.27;;;16.40;99.90;;;;;;4991757;28;20549;-72
2023/10/26 04:18:11;;;;;;;5.33;1.13;;;16.60;99.90;;;;;;4992807;28;20191;-69
2023/10/26 04:20:39;;;;;;;9.77;1.60;;;16.60;99.90;;;;;;4957204;28;20237;-71
2023/10/26 04:23:06;;;;;;;3.93;1.30;;;16.70;99.90;;;;;;4991877;28;20178;-72
2023/10/26 04:25:33;;;;;;;6.87;1.50;;;16.80;99.90;;;;;;4992320;28;20182;-73
2023/10/26 04:28:00;;;;;;;6.43;1.80;;;16.80;99.90;;;;;;4995446;28;20551;-71
2023/10/26 04:30:28;;;;;;;5.10;1.33;;;16.80;99.90;;;;;;4995913;28;20168;-73
2023/10/26 04:32:55;;;;;;;4.47;1.33;;;16.70;99.90;;;;;;4995413;28;20210;-69
2023/10/26 04:35:22;;;;;;;7.47;1.50;;;16.80;99.90;;;;;;4994757;28;20190;-73
2023/10/26 04:37:50;;;;;;;9.30;1.60;;;16.90;99.90;;;;;;4996916;28;20194;-71
2023/10/26 04:40:17;;;;;;;12.30;1.50;;;16.90;99.90;;;;;;4995431;28;20213;-72
2023/10/26 04:42:45;;;;;;;6.27;1.80;;;16.90;99.90;;;;;;4994571;28;20186;-72
2023/10/26 04:45:12;;;;;;;5.93;1.40;;;17.00;99.90;;;;;;4995330;28;20178;-73
2023/10/26 04:47:40;;;;;;;3.17;1.07;;;17.10;99.90;;;;;;5010066;28;20266;-72
2023/10/26 04:50:08;;;;;;;12.47;1.70;;;17.40;99.90;;;;;;4993931;28;20648;-72
2023/10/26 04:52:35;;;;;;;5.67;1.97;;;17.80;99.90;;;;;;4994530;28;20241;-72
2023/10/26 04:55:04;;;;;;;7.50;2.03;;;18.00;99.90;;;;;;4994975;28;20285;-71
2023/10/26 04:57:31;;;;;;;9.63;1.60;;;18.00;99.90;;;;;;4994145;28;20185;-73
2023/10/26 04:59:58;;;;;;;4.80;1.40;;;18.30;99.90;;;;;;4994354;28;20276;-72
2023/10/26 05:02:26;;;;;;;8.83;2.03;;;18.20;99.90;;;;;;4994071;28;20187;-71
2023/10/26 05:04:53;;;;;;;6.67;1.40;;;17.90;99.90;;;;;;5009226;28;20191;-73
2023/10/26 05:07:20;;;;;;;6.33;1.50;;;17.60;99.90;;;;;;4994795;28;20258;-73
2023/10/26 05:09:48;;;;;;;3.67;1.30;;;17.50;99.90;;;;;;4994554;28;20175;-73
2023/10/26 05:12:15;;;;;;;5.07;1.70;;;17.60;99.90;;;;;;4993681;28;20190;-72
2023/10/26 05:14:43;;;;;;;5.13;1.30;;;17.80;99.90;;;;;;4992843;28;20531;-73
2023/10/26 05:17:10;;;;;;;5.83;1.40;;;18.10;99.90;;;;;;4994360;28;20186;-73
2023/10/26 05:19:37;;;;;;;5.80;1.50;;;18.30;99.90;;;;;;4993662;28;20209;-71
2023/10/26 05:22:05;;;;;;;5.60;1.33;;;18.60;99.90;;;;;;4993962;28;20187;-69
2023/10/26 05:24:32;;;;;;;6.23;1.53;;;19.10;99.90;;;;;;4993741;28;20189;-72
2023/10/26 05:27:00;;;;;;;11.13;1.77;;;18.70;99.90;;;;;;4992081;28;20211;-70
2023/10/26 05:32:22;;;;;;;6.60;1.40;;;18.20;99.90;;;;;;5151223;22;20253;-72
2023/10/26 05:34:49;;;;;;;5.30;1.27;;;18.20;99.90;;;;;;4986010;28;20284;-72
2023/10/26 05:37:17;;;;;;;9.43;1.63;;;18.20;99.90;;;;;;4994184;28;20644;-72
2023/10/26 05:39:44;;;;;;;4.50;1.60;;;18.10;99.90;;;;;;4992853;28;20185;-74
2023/10/26 05:42:11;;;;;;;5.23;1.40;;;18.20;99.90;;;;;;4993241;28;20187;-74
2023/10/26 05:44:38;;;;;;;4.77;1.70;;;18.00;99.90;;;;;;4994073;28;20647;-70
2023/10/26 05:47:06;;;;;;;10.70;1.50;;;18.00;99.90;;;;;;4994014;28;20171;-74
2023/10/26 05:49:35;;;;;;;3.37;1.47;;;17.80;99.90;;;;;;4993826;28;20465;-72
2023/10/26 05:52:03;;;;;;;10.97;1.93;;;17.50;99.90;;;;;;4996203;28;20212;-72
2023/10/26 05:54:30;;;;;;;12.10;1.97;;;17.30;99.90;;;;;;5013261;28;20177;-73
2023/10/26 05:56:58;;;;;;;13.40;1.93;;;17.10;99.90;;;;;;5010117;28;20720;-73
2023/10/26 05:59:26;;;;;;;7.03;1.90;;;17.00;99.90;;;;;;4993196;28;20198;-72
2023/10/26 06:01:53;;;;;;;7.80;1.80;;;17.00;99.90;;;;;;5012936;28;20255;-71
2023/10/26 06:04:20;;;;;;;9.10;1.77;;;16.80;99.90;;;;;;5012383;28;20178;-74
2023/10/26 06:06:48;;;;;;;10.93;2.17;;;16.70;99.90;;;;;;4998867;28;20210;-72
2023/10/26 06:09:15;;;;;;;11.00;2.00;;;16.70;99.90;;;;;;4993177;28;20273;-73
2023/10/26 06:11:43;;;;;;;9.57;2.50;;;16.70;99.90;;;;;;4991461;28;20531;-71
2023/10/26 06:14:10;;;;;;;9.53;2.30;;;16.70;99.90;;;;;;4993203;28;20182;-71
2023/10/26 06:16:38;;;;;;;10.40;2.07;;;16.70;99.90;;;;;;4993181;28;20212;-72
2023/10/26 06:19:05;;;;;;;7.03;2.23;;;16.70;99.90;;;;;;4992603;28;20542;-71
2023/10/26 06:21:34;;;;;;;9.87;2.50;;;16.70;99.90;;;;;;5005933;28;20225;-72
2023/10/26 06:24:01;;;;;;;10.17;2.20;;;16.70;99.90;;;;;;5012758;28;20221;-71
2023/10/26 06:26:28;;;;;;;9.03;2.00;;;16.50;99.90;;;;;;5012201;28;20776;-73
2023/10/26 06:28:56;;;;;;;12.30;1.90;;;16.50;99.90;;;;;;4999186;28;20182;-72
2023/10/26 06:31:23;;;;;;;9.23;2.27;;;16.40;99.90;;;;;;4992476;28;20187;-73
2023/10/26 06:33:51;;;;;;;10.73;1.87;;;16.40;99.90;;;;;;4992164;28;20237;-72
2023/10/26 06:36:18;;;;;;;11.07;2.17;;;16.40;99.90;;;;;;4992842;28;20183;-71
2023/10/26 06:38:46;;;;;;;12.17;2.53;;;16.40;99.90;;;;;;4992500;28;20261;-72
2023/10/26 06:41:13;;;;;;;8.53;2.07;;;16.40;99.90;;;;;;4991638;28;20209;-72
2023/10/26 06:43:40;;;;;;;12.03;2.10;;;16.40;99.90;;;;;;4992706;28;20284;-72
2023/10/26 06:46:08;;;;;;;9.90;2.10;;;16.30;99.90;;;;;;4992740;28;20261;-70
2023/10/26 06:48:35;;;;;;;8.77;2.17;;;16.30;99.90;;;;;;4991803;28;20615;-71
2023/10/26 06:51:04;;;;;;;8.30;2.10;;;16.10;99.90;;;;;;4992202;28;20187;-71
2023/10/26 06:53:31;;;;;;;6.03;1.83;;;16.00;99.90;;;;;;4991936;28;20190;-71
2023/10/26 06:56:00;;;;;;;11.57;2.00;;;15.90;99.90;;;;;;4991907;28;20221;-71
2023/10/26 06:58:27;;;;;;;7.10;1.80;;;15.70;99.90;;;;;;4992512;28;20187;-72
2023/10/26 07:00:55;;;;;;;12.60;2.33;;;15.60;99.90;;;;;;4992188;28;20222;-71
2023/10/26 07:03:22;;;;;;;8.57;2.23;;;15.50;99.90;;;;;;4990797;28;20187;-70
2023/10/26 07:05:49;;;;;;;8.40;2.40;;;15.60;99.90;;;;;;4991614;28;20563;-68
2023/10/26 07:08:17;;;;;;;8.53;2.37;;;15.50;99.90;;;;;;4992353;28;20182;-70
2023/10/26 07:10:44;;;;;;;8.57;2.07;;;15.50;99.90;;;;;;4991806;28;20746;-67
2023/10/26 07:13:12;;;;;;;9.97;2.70;;;15.40;99.90;;;;;;4992388;28;20683;-69
2023/10/26 07:15:39;;;;;;;12.47;2.90;;;15.40;99.90;;;;;;4991935;28;20224;-70
2023/10/26 07:18:06;;;;;;;9.33;2.30;;;15.40;99.90;;;;;;4992124;28;20182;-72
2023/10/26 07:20:34;;;;;;;16.30;2.90;;;15.40;99.90;;;;;;4991897;28;20572;-69
2023/10/26 07:23:01;;;;;;;7.47;2.30;;;15.40;99.90;;;;;;4991971;28;20179;-70
2023/10/26 07:25:28;;;;;;;7.27;2.43;;;15.50;99.90;;;;;;4991383;28;20195;-69
2023/10/26 07:27:56;;;;;;;14.03;4.30;;;15.60;99.90;;;;;;4992308;28;20272;-70
2023/10/26 07:30:23;;;;;;;7.20;2.30;;;15.60;99.90;;;;;;4991947;28;20191;-69
2023/10/26 07:32:50;;;;;;;8.77;2.40;;;15.60;99.90;;;;;;4992475;28;20183;-68
2023/10/26 07:35:17;;;;;;;16.73;2.63;;;15.60;99.90;;;;;;4993008;28;20682;-70
2023/10/26 07:37:45;;;;;;;8.43;2.17;;;15.60;99.90;;;;;;4993525;28;20580;-69
2023/10/26 07:40:13;;;;;;;10.93;2.50;;;15.60;99.90;;;;;;4993522;28;20222;-69
2023/10/26 07:42:40;;;;;;;10.67;2.50;;;15.60;99.90;;;;;;4993459;28;20190;-70
2023/10/26 07:45:08;;;;;;;14.17;2.37;;;15.60;99.90;;;;;;4993288;28;20206;-70
2023/10/26 07:47:35;;;;;;;10.60;2.33;;;15.60;99.90;;;;;;4993139;28;20178;-72
2023/10/26 07:50:03;;;;;;;14.00;2.47;;;15.70;99.90;;;;;;4993204;28;20183;-71
2023/10/26 07:52:31;;;;;;;8.77;2.33;;;15.60;99.90;;;;;;4993399;28;20191;-70
2023/10/26 07:54:59;;;;;;;11.60;2.50;;;15.60;99.90;;;;;;4993301;28;20554;-68
2023/10/26 07:57:26;;;;;;;11.53;2.57;;;15.50;99.90;;;;;;4992673;28;20674;-73
2023/10/26 07:59:53;;;;;;;14.07;3.03;;;15.50;99.90;;;;;;4993540;28;20175;-69
2023/10/26 08:02:20;;;;;;;10.40;2.40;;;15.60;99.90;;;;;;4967063;28;20187;-72
2023/10/26 08:04:49;;;;;;;13.97;2.90;;;15.50;99.90;;;;;;4994598;28;20204;-72
2023/10/26 08:07:17;;;;;;;12.37;2.97;;;15.60;99.90;;;;;;4995808;28;20648;-73
2023/10/26 08:09:44;;;;;;;12.87;2.97;;;15.50;99.90;;;;;;4995162;28;20196;-73
2023/10/26 08:12:12;;;;;;;7.10;2.40;;;15.50;99.90;;;;;;4995537;28;20179;-74
2023/10/26 08:14:40;;;;;;;16.27;2.67;;;15.40;99.90;;;;;;4995794;28;20194;-71
2023/10/26 08:17:07;;;;;;;15.77;3.40;;;15.40;99.90;;;;;;4995580;28;20174;-74
2023/10/26 08:19:36;;;;;;;12.77;2.53;;;15.30;99.90;;;;;;4995888;28;20182;-71
2023/10/26 08:22:03;;;;;;;18.07;3.67;;;15.30;99.90;;;;;;4995164;28;20198;-70
2023/10/26 08:24:31;;;;;;;11.70;2.63;;;15.20;99.90;;;;;;4995078;28;20485;-71
2023/10/26 08:26:59;;;;;;;15.60;3.27;;;15.10;99.90;;;;;;4995735;28;20552;-73
2023/10/26 08:29:31;;;;;;;13.00;3.40;;;15.00;99.90;;;;;;4996052;28;20178;-71
2023/10/26 08:31:58;;;;;;;17.80;3.60;;;15.00;99.90;;;;;;4995055;28;20185;-71
2023/10/26 08:34:27;;;;;;;13.03;3.53;;;14.90;99.90;;;;;;4995113;28;20612;-72
2023/10/26 08:36:55;;;;;;;15.40;3.50;;;14.90;99.90;;;;;;4990396;28;20605;-72
2023/10/26 08:39:22;;;;;;;11.17;3.17;;;14.90;99.90;;;;;;4994361;28;20178;-73
2023/10/26 08:42:01;;;;;;;14.10;3.23;;;14.80;99.90;;;;;;4995391;28;20215;-72
2023/10/26 08:44:32;;;;;;;12.63;3.33;;;14.70;99.90;;;;;;4996627;28;20624;-75
2023/10/26 08:47:06;;;;;;;12.87;3.27;;;14.70;99.90;;;;;;4996374;28;20690;-72
2023/10/26 08:49:34;;;;;;;14.37;3.63;;;14.60;99.90;;;;;;4997201;28;20208;-70
2023/10/26 08:52:02;;;;;;;16.23;3.17;;;14.70;99.90;;;;;;4996734;28;20185;-72
2023/10/26 08:54:29;;;;;;;13.57;3.33;;;14.60;99.90;;;;;;4996664;28;20229;-74
2023/10/26 08:57:04;;;;;;;8.43;2.97;;;14.60;99.90;;;;;;4996236;28;20244;-74
2023/10/26 08:59:32;;;;;;;12.03;2.97;;;14.60;99.90;;;;;;4997076;28;20170;-75
2023/10/26 09:01:59;;;;;;;12.10;3.13;;;14.60;99.90;;;;;;4996840;28;20216;-74
2023/10/26 09:04:26;;;;;;;14.10;2.67;;;14.60;99.90;;;;;;4997039;28;20207;-75
2023/10/26 09:06:53;;;;;;;16.07;3.33;;;14.60;99.90;;;;;;4996642;28;20221;-73
2023/10/26 09:09:21;;;;;;;13.30;2.97;;;14.70;99.90;;;;;;4996437;28;20647;-72
2023/10/26 09:11:49;;;;;;;8.73;2.77;;;14.80;99.90;;;;;;4996069;28;20183;-73
2023/10/26 09:14:18;;;;;;;11.93;2.87;;;14.90;99.90;;;;;;4996477;28;20634;-72
2023/10/26 09:16:47;;;;;;;13.80;2.60;;;14.90;99.90;;;;;;4996378;28;20582;-74
2023/10/26 09:19:16;;;;;;;8.47;2.47;;;14.90;99.90;;;;;;4996413;28;20174;-71
2023/10/26 09:21:53;;;;;;;11.27;2.77;;;14.80;99.90;;;;;;4995503;28;20625;-74
2023/10/26 09:24:31;;;;;;;10.77;2.73;;;14.90;99.90;;;;;;4996072;28;20642;-73
2023/10/26 09:27:00;;;;;;;6.63;2.20;;;14.80;99.90;;;;;;4994344;28;20676;-72
2023/10/26 09:29:38;;;;;;;13.23;2.50;;;14.90;99.90;;;;;;4995823;28;20647;-73
2023/10/26 09:32:06;;;;;;;12.93;2.73;;;14.90;99.90;;;;;;4995654;28;20188;-70
2023/10/26 09:34:43;;;;;;;11.13;2.53;;;15.00;99.90;;;;;;4994342;28;20237;-75
2023/10/26 09:37:11;;;;;;;9.73;2.37;;;15.00;99.90;;;;;;4995471;28;20213;-72
2023/10/26 09:39:41;;;;;;;11.90;2.50;;;14.90;99.90;;;;;;4975547;28;20186;-72
2023/10/26 09:42:16;;;;;;;9.67;2.30;;;14.90;99.90;;;;;;4977614;28;20203;-73
2023/10/26 09:44:44;;;;;;;11.00;2.73;;;14.90;99.90;;;;;;4994948;28;20241;-73
2023/10/26 09:47:12;;;;;;;7.27;2.10;;;14.90;99.90;;;;;;4994941;28;20186;-73
2023/10/26 09:49:39;;;;;;;13.00;2.97;;;14.80;99.90;;;;;;4995173;28;20179;-75
2023/10/26 09:52:06;;;;;;;11.33;2.47;;;14.70;99.90;;;;;;4995357;28;20532;-74
2023/10/26 09:54:36;;;;;;;15.50;3.47;;;14.60;99.90;;;;;;4995338;28;20193;-72
2023/10/26 09:57:34;;;;;;;9.03;2.43;;;14.50;99.90;;;;;;4995342;28;20179;-72
2023/10/26 10:00:11;;;;;;;14.63;3.03;;;14.50;99.90;;;;;;4967549;28;20230;-72
2023/10/26 10:02:38;;;;;;;9.60;2.00;;;14.50;99.90;;;;;;4982588;28;20187;-73
2023/10/26 10:05:06;;;;;;;9.20;2.90;;;14.40;99.90;;;;;;4993456;28;20644;-73
2023/10/26 10:07:44;;;;;;;18.13;2.43;;;14.50;99.90;;;;;;4988808;28;20198;-72
2023/10/26 10:10:13;;;;;;;13.53;3.97;;;14.40;99.90;;;;;;4994800;28;20244;-74
2023/10/26 10:12:42;;;;;;;15.10;2.80;;;14.50;99.90;;;;;;4993690;28;20647;-73
2023/10/26 10:15:11;;;;;;;11.17;2.80;;;14.50;99.90;;;;;;4994396;28;20198;-72
2023/10/26 10:17:48;;;;;;;11.20;2.57;;;14.60;99.90;;;;;;4994474;28;20221;-72
2023/10/26 10:20:18;;;;;;;15.77;2.90;;;14.50;99.90;;;;;;4994264;28;20233;-73
2023/10/26 10:22:46;;;;;;;14.70;3.10;;;14.40;99.90;;;;;;4987888;28;20281;-74
2023/10/26 10:25:16;;;;;;;14.20;2.53;;;14.40;99.90;;;;;;4991851;28;20185;-71
2023/10/26 10:27:49;;;;;;;13.43;3.23;;;14.30;99.90;;;;;;4992601;28;20730;-72
2023/10/26 10:30:23;;;;;;;11.27;3.10;;;14.20;99.90;;;;;;4994264;28;20571;-73
2023/10/26 10:32:52;;;;;;;12.30;3.03;;;14.10;99.90;;;;;;4993835;28;20185;-72
2023/10/26 10:35:22;;;;;;;11.00;2.67;;;14.00;99.90;;;;;;4994447;28;20740;-72
2023/10/26 10:38:14;;;;;;;14.20;2.47;;;14.00;99.90;;;;;;4992669;28;20225;-73
2023/10/26 10:41:02;;;;;;;15.07;3.07;;;14.00;99.90;;;;;;4976712;28;20237;-71
2023/10/26 10:43:35;;;;;;;11.30;2.00;;;14.00;99.90;;;;;;4983914;28;20201;-70
2023/10/26 10:46:21;;;;;;;12.47;2.60;;;14.00;99.90;;;;;;4992843;28;20205;-71
2023/10/26 10:49:08;;;;;;;12.17;2.70;;;14.10;99.90;;;;;;4974980;28;20193;-72
2023/10/26 10:51:39;;;;;;;11.60;2.80;;;14.10;99.90;;;;;;4993646;28;20643;-70
2023/10/26 10:54:09;;;;;;;13.30;2.70;;;14.20;99.90;;;;;;4993322;28;20218;-73
2023/10/26 10:56:46;;;;;;;12.03;2.63;;;14.20;99.90;;;;;;4993767;28;20191;-71
2023/10/26 10:59:21;;;;;;;18.67;2.93;;;14.30;99.90;;;;;;4994023;28;20296;-72
2023/10/26 11:01:49;;;;;;;11.77;2.67;;;14.30;99.90;;;;;;4994008;28;20226;-70
2023/10/26 11:04:17;;;;;;;15.73;2.60;;;14.30;99.90;;;;;;4993624;28;20182;-72
2023/10/26 11:06:47;;;;;;;13.17;3.50;;;14.30;99.90;;;;;;4993860;28;20228;-69
2023/10/26 11:09:29;;;;;;;16.43;2.37;;;14.20;99.90;;;;;;4993232;28;20189;-72
2023/10/26 11:12:07;;;;;;;12.17;2.70;;;14.20;99.90;;;;;;4993294;28;20195;-73
2023/10/26 11:14:34;;;;;;;14.47;3.57;;;14.10;99.90;;;;;;4993428;28;20217;-70
2023/10/26 11:17:02;;;;;;;16.40;3.33;;;14.00;99.90;;;;;;4993256;28;20190;-71
2023/10/26 11:19:35;;;;;;;10.70;2.50;;;14.00;99.90;;;;;;4993473;28;20211;-71
2023/10/26 11:22:04;;;;;;;16.40;2.63;;;14.00;99.90;;;;;;4993642;28;20308;-71
2023/10/26 11:24:32;;;;;;;14.57;4.20;;;14.00;99.90;;;;;;4993280;28;20182;-71
2023/10/26 11:27:18;;;;;;;16.30;2.97;;;13.90;99.90;;;;;;4989445;28;20194;-71
2023/10/26 11:30:00;;;;;;;16.60;2.93;;;13.90;99.90;;;;;;4993227;28;20672;-71
2023/10/26 11:32:30;;;;;;;13.17;2.83;;;13.80;99.90;;;;;;4993634;28;20219;-70
2023/10/26 11:35:14;;;;;;;11.87;2.37;;;13.90;99.90;;;;;;4994101;28;20596;-70
2023/10/26 11:37:51;;;;;;;21.93;3.07;;;13.80;99.90;;;;;;4997512;28;20225;-69
2023/10/26 11:40:28;;;;;;;12.10;3.33;;;13.80;99.90;;;;;;4997233;28;20248;-68
2023/10/26 11:42:59;;;;;;;11.47;2.83;;;13.70;99.90;;;;;;4997461;28;20261;-68
2023/10/26 11:45:28;;;;;;;13.17;3.30;;;13.70;99.90;;;;;;4997313;28;20197;-70
2023/10/26 11:48:00;;;;;;;11.93;2.47;;;13.80;99.90;;;;;;4997409;28;20276;-72
2023/10/26 11:50:29;;;;;;;13.80;2.50;;;13.90;99.90;;;;;;4997080;28;20685;-72
2023/10/26 11:53:03;;;;;;;7.13;2.20;;;13.90;99.90;;;;;;4997288;28;20186;-71
2023/10/26 11:55:34;;;;;;;16.23;2.70;;;14.00;99.90;;;;;;4997429;28;20212;-69
2023/10/26 11:58:02;;;;;;;12.87;2.27;;;14.00;99.90;;;;;;4997621;28;20216;-70
2023/10/26 12:00:31;;;;;;;11.77;3.67;;;14.00;99.90;;;;;;4995790;28;20221;-68
2023/10/26 12:03:00;;;;;;;13.03;3.20;;;13.90;99.90;;;;;;4996074;28;20182;-70
2023/10/26 12:05:28;;;;;;;19.37;3.17;;;13.90;99.90;;;;;;4997033;28;20217;-72
2023/10/26 12:07:56;;;;;;;14.10;2.90;;;13.80;99.90;;;;;;4997265;28;20240;-69
2023/10/26 12:10:24;;;;;;;19.57;3.10;;;13.80;99.90;;;;;;4996637;28;20221;-69
2023/10/26 12:12:52;;;;;;;14.60;2.73;;;13.70;99.90;;;;;;4996701;28;20217;-69
2023/10/26 12:15:21;;;;;;;14.33;2.60;;;13.70;99.90;;;;;;4996466;28;20548;-71
2023/10/26 12:17:48;;;;;;;12.10;2.67;;;13.70;99.90;;;;;;4995466;28;20191;-71
2023/10/26 12:20:16;;;;;;;16.23;3.60;;;13.70;99.90;;;;;;4997050;28;20218;-71
2023/10/26 12:22:44;;;;;;;8.03;2.20;;;13.70;99.90;;;;;;4996349;28;20222;-68
2023/10/26 12:25:11;;;;;;;15.47;2.77;;;13.70;99.90;;;;;;4996701;28;20615;-73
2023/10/26 12:27:40;;;;;;;14.67;3.33;;;13.70;99.90;;;;;;4996715;28;20669;-70
2023/10/26 12:30:08;;;;;;;16.03;2.40;;;13.70;99.90;;;;;;4996937;28;20173;-71
2023/10/26 12:32:35;;;;;;;8.43;2.30;;;13.60;99.90;;;;;;4996410;28;20388;-72
2023/10/26 12:35:03;;;;;;;12.77;2.23;;;13.60;99.90;;;;;;4996481;28;20300;-73
2023/10/26 12:37:30;;;;;;;14.73;2.70;;;13.60;99.90;;;;;;4996164;28;20669;-72
2023/10/26 12:39:58;;;;;;;11.67;2.17;;;13.50;99.90;;;;;;4996273;28;20190;-70
2023/10/26 12:42:25;;;;;;;14.47;2.93;;;13.50;99.90;;;;;;4997025;28;20198;-71
2023/10/26 12:44:53;;;;;;;12.60;2.67;;;13.50;99.90;;;;;;4996149;28;20212;-73
2023/10/26 12:47:20;;;;;;;9.00;2.33;;;13.40;99.90;;;;;;4995586;28;20612;-73
2023/10/26 12:49:47;;;;;;;15.23;2.97;;;13.40;99.90;;;;;;4996146;28;20552;-71
2023/10/26 12:52:15;;;;;;;11.27;2.50;;;13.40;99.90;;;;;;4995128;28;20246;-73
2023/10/26 12:54:42;;;;;;;11.33;2.60;;;13.40;99.90;;;;;;4996538;28;20567;-73